sensor_id;sensor_type;location;lat;lon;timestamp;temperature;humidity
10873;DHT22;34586;53.616;10.032;2022-08-04T00:00:11;21.30;99.90
10873;DHT22;34586;53.616;10.032;2022-08-04T00:03:01;21.30;99.90
10873;DHT22;34586;53.616;10.032;2022-08-04T00:06:02;21.20;99.90
10873;DHT22;34586;53.616;10.032;2022-08-04T00:08:44;21.20;99.90
10873;DHT22;34586;53.616;10.032;2022-08-04T00:11:14;21.20;99.90
10873;DHT22;34586;53.616;10.032;2022-08-04T00:13:42;21.10;99.90
10873;DHT22;34586;53.616;10.032;2022-08-04T00:16:09;21.10;99.90
10873;DHT22;34586;53.616;10.032;2022-08-04T00:19:06;21.10;99.90
10873;DHT22;34586;53.616;10.032;2022-08-04T00:21:36;21.00;99.90
10873;DHT22;34586;53.616;10.032;2022-08-04T00:24:03;21.00;99.90
10873;DHT22;34586;53.616;10.032;2022-08-04T00:26:30;21.00;99.90
10873;DHT22;34586;53.616;10.032;2022-08-04T00:28:56;21.00;99.90
10873;DHT22;34586;53.616;10.032;2022-08-04T00:31:22;20.90;99.90
10873;DHT22;34586;53.616;10.032;2022-08-04T00:33:48;20.90;99.90
10873;DHT22;34586;53.616;10.032;2022-08-04T00:36:15;20.90;99.90
10873;DHT22;34586;53.616;10.032;2022-08-04T00:38:42;20.90;99.90
10873;DHT22;34586;53.616;10.032;2022-08-04T00:41:38;21.00;99.90
10873;DHT22;34586;53.616;10.032;2022-08-04T00:44:20;20.80;99.90
10873;DHT22;34586;53.616;10.032;2022-08-04T00:49:31;20.80;99.90
10873;DHT22;34586;53.616;10.032;2022-08-04T00:57:54;20.80;99.90
10873;DHT22;34586;53.616;10.032;2022-08-04T01:00:27;20.70;99.90
10873;DHT22;34586;53.616;10.032;2022-08-04T01:03:20;20.70;99.90
10873;DHT22;34586;53.616;10.032;2022-08-04T01:08:47;20.70;99.90
10873;DHT22;34586;53.616;10.032;2022-08-04T01:11:30;20.70;99.90
10873;DHT22;34586;53.616;10.032;2022-08-04T01:14:17;20.60;99.90
10873;DHT22;34586;53.616;10.032;2022-08-04T01:17:20;20.60;99.90
10873;DHT22;34586;53.616;10.032;2022-08-04T01:19:53;20.60;99.90
10873;DHT22;34586;53.616;10.032;2022-08-04T01:23:03;20.50;99.90
10873;DHT22;34586;53.616;10.032;2022-08-04T01:30:42;20.50;99.90
10873;DHT22;34586;53.616;10.032;2022-08-04T01:33:13;20.50;99.90
10873;DHT22;34586;53.616;10.032;2022-08-04T01:40:40;20.40;99.90
10873;DHT22;34586;53.616;10.032;2022-08-04T01:43:07;20.40;99.90
10873;DHT22;34586;53.616;10.032;2022-08-04T01:45:36;20.30;99.90
10873;DHT22;34586;53.616;10.032;2022-08-04T01:48:02;20.30;99.90
10873;DHT22;34586;53.616;10.032;2022-08-04T01:50:34;20.30;99.90
10873;DHT22;34586;53.616;10.032;2022-08-04T01:52:59;20.30;99.90
10873;DHT22;34586;53.616;10.032;2022-08-04T01:55:27;20.30;99.90
10873;DHT22;34586;53.616;10.032;2022-08-04T01:57:57;20.30;99.90
10873;DHT22;34586;53.616;10.032;2022-08-04T02:00:26;20.30;99.90
10873;DHT22;34586;53.616;10.032;2022-08-04T02:02:53;20.30;99.90
10873;DHT22;34586;53.616;10.032;2022-08-04T02:05:22;20.30;99.90
10873;DHT22;34586;53.616;10.032;2022-08-04T02:13:16;20.20;99.90
10873;DHT22;34586;53.616;10.032;2022-08-04T02:15:52;20.20;99.90
10873;DHT22;34586;53.616;10.032;2022-08-04T02:18:27;20.20;99.90
10873;DHT22;34586;53.616;10.032;2022-08-04T02:20:57;20.20;99.90
10873;DHT22;34586;53.616;10.032;2022-08-04T02:23:28;20.10;99.90
10873;DHT22;34586;53.616;10.032;2022-08-04T02:26:04;20.10;99.90
10873;DHT22;34586;53.616;10.032;2022-08-04T02:28:47;20.10;99.90
10873;DHT22;34586;53.616;10.032;2022-08-04T02:34:07;20.00;99.90
10873;DHT22;34586;53.616;10.032;2022-08-04T02:36:38;20.00;99.90
10873;DHT22;34586;53.616;10.032;2022-08-04T02:39:08;20.00;99.90
10873;DHT22;34586;53.616;10.032;2022-08-04T02:41:34;20.00;99.90
10873;DHT22;34586;53.616;10.032;2022-08-04T02:44:02;20.00;99.90
10873;DHT22;34586;53.616;10.032;2022-08-04T02:46:29;20.00;99.90
10873;DHT22;34586;53.616;10.032;2022-08-04T02:48:55;19.90;99.90
10873;DHT22;34586;53.616;10.032;2022-08-04T02:51:27;19.90;99.90
10873;DHT22;34586;53.616;10.032;2022-08-04T02:53:55;19.90;99.90
10873;DHT22;34586;53.616;10.032;2022-08-04T02:56:22;19.90;99.90
10873;DHT22;34586;53.616;10.032;2022-08-04T02:58:52;19.90;99.90
10873;DHT22;34586;53.616;10.032;2022-08-04T03:01:18;19.90;99.90
10873;DHT22;34586;53.616;10.032;2022-08-04T03:03:53;19.80;99.90
10873;DHT22;34586;53.616;10.032;2022-08-04T03:16:11;19.70;99.90
10873;DHT22;34586;53.616;10.032;2022-08-04T03:41:03;19.50;99.90
10873;DHT22;34586;53.616;10.032;2022-08-04T03:46:14;19.60;99.90
10873;DHT22;34586;53.616;10.032;2022-08-04T04:00:34;19.60;99.90
10873;DHT22;34586;53.616;10.032;2022-08-04T04:04:07;19.60;99.90
10873;DHT22;34586;53.616;10.032;2022-08-04T04:12:06;19.60;99.90
10873;DHT22;34586;53.616;10.032;2022-08-04T04:17:42;19.70;99.90
10873;DHT22;34586;53.616;10.032;2022-08-04T04:26:06;19.80;99.90
10873;DHT22;34586;53.616;10.032;2022-08-04T04:32:20;19.90;99.90
10873;DHT22;34586;53.616;10.032;2022-08-04T04:35:18;19.90;99.90
10873;DHT22;34586;53.616;10.032;2022-08-04T04:43:12;20.00;99.90
10873;DHT22;34586;53.616;10.032;2022-08-04T04:46:05;20.00;99.90
10873;DHT22;34586;53.616;10.032;2022-08-04T04:48:53;20.10;99.90
10873;DHT22;34586;53.616;10.032;2022-08-04T04:51:41;20.10;99.90
10873;DHT22;34586;53.616;10.032;2022-08-04T04:54:32;20.20;99.90
10873;DHT22;34586;53.616;10.032;2022-08-04T04:57:18;20.30;99.90
10873;DHT22;34586;53.616;10.032;2022-08-04T05:00:00;20.40;99.90
10873;DHT22;34586;53.616;10.032;2022-08-04T05:13:42;20.70;99.90
10873;DHT22;34586;53.616;10.032;2022-08-04T05:16:26;20.80;99.90
10873;DHT22;34586;53.616;10.032;2022-08-04T05:19:22;20.90;99.90
10873;DHT22;34586;53.616;10.032;2022-08-04T05:22:02;21.00;99.90
10873;DHT22;34586;53.616;10.032;2022-08-04T05:24:31;21.00;99.90
10873;DHT22;34586;53.616;10.032;2022-08-04T05:27:02;21.10;99.90
10873;DHT22;34586;53.616;10.032;2022-08-04T05:29:40;21.30;99.90
10873;DHT22;34586;53.616;10.032;2022-08-04T05:32:12;21.50;99.90
10873;DHT22;34586;53.616;10.032;2022-08-04T05:34:43;21.60;99.90
10873;DHT22;34586;53.616;10.032;2022-08-04T05:37:13;21.70;99.90
10873;DHT22;34586;53.616;10.032;2022-08-04T05:39:46;21.70;99.90
10873;DHT22;34586;53.616;10.032;2022-08-04T05:42:14;21.80;99.90
10873;DHT22;34586;53.616;10.032;2022-08-04T05:44:41;21.90;96.40
10873;DHT22;34586;53.616;10.032;2022-08-04T05:47:07;22.00;88.80
10873;DHT22;34586;53.616;10.032;2022-08-04T05:49:36;22.10;83.20
10873;DHT22;34586;53.616;10.032;2022-08-04T05:52:03;22.20;81.60
10873;DHT22;34586;53.616;10.032;2022-08-04T05:54:31;22.30;74.30
10873;DHT22;34586;53.616;10.032;2022-08-04T05:56:58;22.40;59.20
10873;DHT22;34586;53.616;10.032;2022-08-04T05:59:24;22.50;32.60
10873;DHT22;34586;53.616;10.032;2022-08-04T06:01:52;22.60;19.90
10873;DHT22;34586;53.616;10.032;2022-08-04T06:04:20;22.70;1.60
10873;DHT22;34586;53.616;10.032;2022-08-04T06:06:47;22.70;1.00
10873;DHT22;34586;53.616;10.032;2022-08-04T06:09:13;22.70;1.00
10873;DHT22;34586;53.616;10.032;2022-08-04T06:11:39;22.80;1.00
10873;DHT22;34586;53.616;10.032;2022-08-04T06:14:08;23.00;1.00
10873;DHT22;34586;53.616;10.032;2022-08-04T06:16:40;23.10;1.00
10873;DHT22;34586;53.616;10.032;2022-08-04T06:19:10;23.10;1.00
10873;DHT22;34586;53.616;10.032;2022-08-04T06:21:40;23.20;1.00
10873;DHT22;34586;53.616;10.032;2022-08-04T06:24:10;23.20;1.00
10873;DHT22;34586;53.616;10.032;2022-08-04T06:26:36;23.20;1.00
10873;DHT22;34586;53.616;10.032;2022-08-04T06:29:03;23.20;1.00
10873;DHT22;34586;53.616;10.032;2022-08-04T06:31:31;23.20;1.00
10873;DHT22;34586;53.616;10.032;2022-08-04T06:34:23;23.20;1.00
10873;DHT22;34586;53.616;10.032;2022-08-04T06:36:50;23.20;1.00
10873;DHT22;34586;53.616;10.032;2022-08-04T06:39:16;23.30;1.00
10873;DHT22;34586;53.616;10.032;2022-08-04T06:41:43;23.30;1.00
10873;DHT22;34586;53.616;10.032;2022-08-04T06:44:09;23.40;1.00
10873;DHT22;34586;53.616;10.032;2022-08-04T06:46:40;23.40;1.00
10873;DHT22;34586;53.616;10.032;2022-08-04T06:49:06;23.40;1.00
10873;DHT22;34586;53.616;10.032;2022-08-04T06:51:34;23.50;1.00
10873;DHT22;34586;53.616;10.032;2022-08-04T06:54:01;23.60;1.00
10873;DHT22;34586;53.616;10.032;2022-08-04T06:56:29;23.50;1.00
10873;DHT22;34586;53.616;10.032;2022-08-04T06:58:55;23.70;1.00
10873;DHT22;34586;53.616;10.032;2022-08-04T07:01:24;23.80;1.00
10873;DHT22;34586;53.616;10.032;2022-08-04T07:03:51;23.90;1.00
10873;DHT22;34586;53.616;10.032;2022-08-04T07:06:17;24.00;1.00
10873;DHT22;34586;53.616;10.032;2022-08-04T07:08:43;24.00;1.00
10873;DHT22;34586;53.616;10.032;2022-08-04T07:11:10;24.10;1.00
10873;DHT22;34586;53.616;10.032;2022-08-04T07:13:36;24.20;1.00
10873;DHT22;34586;53.616;10.032;2022-08-04T07:16:02;24.20;1.00
10873;DHT22;34586;53.616;10.032;2022-08-04T07:18:30;24.30;99.90
10873;DHT22;34586;53.616;10.032;2022-08-04T07:20:56;24.40;99.90
10873;DHT22;34586;53.616;10.032;2022-08-04T07:23:23;24.60;99.90
10873;DHT22;34586;53.616;10.032;2022-08-04T07:25:51;24.80;99.90
10873;DHT22;34586;53.616;10.032;2022-08-04T07:28:18;25.00;95.10
10873;DHT22;34586;53.616;10.032;2022-08-04T07:30:44;25.20;1.00
10873;DHT22;34586;53.616;10.032;2022-08-04T07:33:11;25.30;1.00
10873;DHT22;34586;53.616;10.032;2022-08-04T07:35:38;25.30;99.90
10873;DHT22;34586;53.616;10.032;2022-08-04T07:38:04;25.40;99.90
10873;DHT22;34586;53.616;10.032;2022-08-04T07:40:31;25.40;99.90
10873;DHT22;34586;53.616;10.032;2022-08-04T07:42:57;25.50;1.00
10873;DHT22;34586;53.616;10.032;2022-08-04T07:45:23;25.50;99.90
10873;DHT22;34586;53.616;10.032;2022-08-04T07:47:49;25.60;99.90
10873;DHT22;34586;53.616;10.032;2022-08-04T07:50:15;25.60;1.00
10873;DHT22;34586;53.616;10.032;2022-08-04T07:52:42;25.80;1.00
10873;DHT22;34586;53.616;10.032;2022-08-04T07:55:08;25.90;96.20
10873;DHT22;34586;53.616;10.032;2022-08-04T07:57:35;26.00;1.00
10873;DHT22;34586;53.616;10.032;2022-08-04T08:00:02;26.00;1.00
10873;DHT22;34586;53.616;10.032;2022-08-04T08:02:29;26.10;1.00
10873;DHT22;34586;53.616;10.032;2022-08-04T08:04:55;26.20;99.90
10873;DHT22;34586;53.616;10.032;2022-08-04T08:07:20;26.30;99.90
10873;DHT22;34586;53.616;10.032;2022-08-04T08:09:46;26.50;1.00
10873;DHT22;34586;53.616;10.032;2022-08-04T08:12:12;26.60;1.00
10873;DHT22;34586;53.616;10.032;2022-08-04T08:14:38;26.70;99.90
10873;DHT22;34586;53.616;10.032;2022-08-04T08:17:05;26.80;99.90
10873;DHT22;34586;53.616;10.032;2022-08-04T08:19:31;26.90;99.90
10873;DHT22;34586;53.616;10.032;2022-08-04T08:21:58;26.90;99.90
10873;DHT22;34586;53.616;10.032;2022-08-04T08:24:23;27.10;1.00
10873;DHT22;34586;53.616;10.032;2022-08-04T08:26:49;27.20;1.00
10873;DHT22;34586;53.616;10.032;2022-08-04T08:29:15;27.40;1.00
10873;DHT22;34586;53.616;10.032;2022-08-04T08:31:40;27.50;99.90
10873;DHT22;34586;53.616;10.032;2022-08-04T08:34:10;27.60;1.00
10873;DHT22;34586;53.616;10.032;2022-08-04T08:36:43;27.80;81.80
10873;DHT22;34586;53.616;10.032;2022-08-04T08:39:18;28.00;1.00
10873;DHT22;34586;53.616;10.032;2022-08-04T08:44:55;28.30;1.00
10873;DHT22;34586;53.616;10.032;2022-08-04T08:47:42;28.50;1.00
10873;DHT22;34586;53.616;10.032;2022-08-04T08:56:24;28.60;99.90
10873;DHT22;34586;53.616;10.032;2022-08-04T08:59:07;28.60;99.90
10873;DHT22;34586;53.616;10.032;2022-08-04T09:10:14;28.80;99.90
10873;DHT22;34586;53.616;10.032;2022-08-04T09:12:55;28.90;96.30
10873;DHT22;34586;53.616;10.032;2022-08-04T09:15:48;29.10;99.90
10873;DHT22;34586;53.616;10.032;2022-08-04T09:21:30;29.50;99.90
10873;DHT22;34586;53.616;10.032;2022-08-04T09:27:14;29.80;1.00
10873;DHT22;34586;53.616;10.032;2022-08-04T09:30:02;30.00;1.00
10873;DHT22;34586;53.616;10.032;2022-08-04T09:32:46;30.20;1.00
10873;DHT22;34586;53.616;10.032;2022-08-04T09:41:01;30.30;99.90
10873;DHT22;34586;53.616;10.032;2022-08-04T09:46:24;30.40;99.90
10873;DHT22;34586;53.616;10.032;2022-08-04T09:48:57;30.40;99.90
10873;DHT22;34586;53.616;10.032;2022-08-04T09:54:15;30.80;18.90
10873;DHT22;34586;53.616;10.032;2022-08-04T09:57:11;30.90;29.70
10873;DHT22;34586;53.616;10.032;2022-08-04T10:00:00;30.80;99.10
10873;DHT22;34586;53.616;10.032;2022-08-04T10:02:33;30.90;99.90
10873;DHT22;34586;53.616;10.032;2022-08-04T10:05:02;31.00;42.60
10873;DHT22;34586;53.616;10.032;2022-08-04T10:07:50;30.90;79.30
10873;DHT22;34586;53.616;10.032;2022-08-04T10:13:30;30.80;98.20
10873;DHT22;34586;53.616;10.032;2022-08-04T10:27:15;31.90;1.00
10873;DHT22;34586;53.616;10.032;2022-08-04T10:29:46;32.10;1.00
10873;DHT22;34586;53.616;10.032;2022-08-04T10:32:47;32.20;1.00
10873;DHT22;34586;53.616;10.032;2022-08-04T10:35:20;32.20;1.00
10873;DHT22;34586;53.616;10.032;2022-08-04T10:40:44;32.20;1.00
10873;DHT22;34586;53.616;10.032;2022-08-04T10:43:38;32.40;1.00
10873;DHT22;34586;53.616;10.032;2022-08-04T10:46:31;32.20;1.00
10873;DHT22;34586;53.616;10.032;2022-08-04T10:51:39;32.00;1.00
10873;DHT22;34586;53.616;10.032;2022-08-04T10:54:18;32.10;1.00
10873;DHT22;34586;53.616;10.032;2022-08-04T10:56:51;32.10;1.00
10873;DHT22;34586;53.616;10.032;2022-08-04T10:59:44;32.10;1.00
10873;DHT22;34586;53.616;10.032;2022-08-04T11:07:53;32.20;1.00
10873;DHT22;34586;53.616;10.032;2022-08-04T11:10:22;32.20;1.00
10873;DHT22;34586;53.616;10.032;2022-08-04T11:12:56;32.20;1.00
10873;DHT22;34586;53.616;10.032;2022-08-04T11:15:36;32.30;1.00
10873;DHT22;34586;53.616;10.032;2022-08-04T11:18:09;32.50;1.00
10873;DHT22;34586;53.616;10.032;2022-08-04T11:20:42;32.70;1.00
10873;DHT22;34586;53.616;10.032;2022-08-04T11:23:10;32.60;1.00
10873;DHT22;34586;53.616;10.032;2022-08-04T11:26:03;32.50;1.00
10873;DHT22;34586;53.616;10.032;2022-08-04T11:31:21;32.60;1.00
10873;DHT22;34586;53.616;10.032;2022-08-04T11:34:04;32.90;1.00
10873;DHT22;34586;53.616;10.032;2022-08-04T11:36:50;33.20;1.00
10873;DHT22;34586;53.616;10.032;2022-08-04T11:39:34;33.40;1.00
10873;DHT22;34586;53.616;10.032;2022-08-04T11:42:22;33.40;1.00
10873;DHT22;34586;53.616;10.032;2022-08-04T11:44:58;33.50;1.00
10873;DHT22;34586;53.616;10.032;2022-08-04T11:47:32;33.60;1.00
10873;DHT22;34586;53.616;10.032;2022-08-04T11:50:07;33.70;1.00
10873;DHT22;34586;53.616;10.032;2022-08-04T11:52:34;33.80;1.00
10873;DHT22;34586;53.616;10.032;2022-08-04T11:55:06;33.90;1.00
10873;DHT22;34586;53.616;10.032;2022-08-04T11:57:31;34.20;99.90
10873;DHT22;34586;53.616;10.032;2022-08-04T11:59:58;34.20;1.00
10873;DHT22;34586;53.616;10.032;2022-08-04T12:05:26;34.30;99.90
10873;DHT22;34586;53.616;10.032;2022-08-04T12:11:02;34.50;99.90
10873;DHT22;34586;53.616;10.032;2022-08-04T12:13:54;34.30;99.90
10873;DHT22;34586;53.616;10.032;2022-08-04T12:19:21;34.40;99.90
10873;DHT22;34586;53.616;10.032;2022-08-04T12:21:53;34.90;99.90
10873;DHT22;34586;53.616;10.032;2022-08-04T12:24:22;35.30;99.90
10873;DHT22;34586;53.616;10.032;2022-08-04T12:26:52;35.30;99.90
10873;DHT22;34586;53.616;10.032;2022-08-04T12:29:22;35.10;99.90
10873;DHT22;34586;53.616;10.032;2022-08-04T12:31:56;35.30;99.90
10873;DHT22;34586;53.616;10.032;2022-08-04T12:34:32;35.30;99.90
10873;DHT22;34586;53.616;10.032;2022-08-04T12:37:09;35.70;99.90
10873;DHT22;34586;53.616;10.032;2022-08-04T12:39:37;36.80;99.90
10873;DHT22;34586;53.616;10.032;2022-08-04T12:42:18;37.80;99.90
10873;DHT22;34586;53.616;10.032;2022-08-04T12:44:47;38.30;99.90
10873;DHT22;34586;53.616;10.032;2022-08-04T12:47:22;38.30;99.90
10873;DHT22;34586;53.616;10.032;2022-08-04T12:49:49;39.10;99.90
10873;DHT22;34586;53.616;10.032;2022-08-04T12:52:17;40.20;99.90
10873;DHT22;34586;53.616;10.032;2022-08-04T12:54:45;41.30;99.90
10873;DHT22;34586;53.616;10.032;2022-08-04T12:57:13;42.20;99.90
10873;DHT22;34586;53.616;10.032;2022-08-04T12:59:43;43.20;99.90
10873;DHT22;34586;53.616;10.032;2022-08-04T13:02:17;43.50;99.90
10873;DHT22;34586;53.616;10.032;2022-08-04T13:04:48;43.10;99.90
10873;DHT22;34586;53.616;10.032;2022-08-04T13:07:18;43.70;99.90
10873;DHT22;34586;53.616;10.032;2022-08-04T13:09:48;43.20;99.90
10873;DHT22;34586;53.616;10.032;2022-08-04T13:12:20;42.70;99.90
10873;DHT22;34586;53.616;10.032;2022-08-04T13:14:49;41.50;99.90
10873;DHT22;34586;53.616;10.032;2022-08-04T13:17:16;40.10;99.90
10873;DHT22;34586;53.616;10.032;2022-08-04T13:19:46;38.90;99.90
10873;DHT22;34586;53.616;10.032;2022-08-04T13:22:13;37.70;99.90
10873;DHT22;34586;53.616;10.032;2022-08-04T13:24:48;37.10;99.90
10873;DHT22;34586;53.616;10.032;2022-08-04T13:27:15;36.70;99.90
10873;DHT22;34586;53.616;10.032;2022-08-04T13:29:43;36.60;99.90
10873;DHT22;34586;53.616;10.032;2022-08-04T13:32:15;36.60;99.90
10873;DHT22;34586;53.616;10.032;2022-08-04T13:34:42;36.40;99.90
10873;DHT22;34586;53.616;10.032;2022-08-04T13:37:09;36.30;99.90
10873;DHT22;34586;53.616;10.032;2022-08-04T13:39:36;36.70;99.90
10873;DHT22;34586;53.616;10.032;2022-08-04T13:42:10;37.30;99.90
10873;DHT22;34586;53.616;10.032;2022-08-04T13:44:37;37.30;99.90
10873;DHT22;34586;53.616;10.032;2022-08-04T13:47:08;36.90;99.90
10873;DHT22;34586;53.616;10.032;2022-08-04T13:49:35;36.50;99.90
10873;DHT22;34586;53.616;10.032;2022-08-04T13:52:02;36.60;99.90
10873;DHT22;34586;53.616;10.032;2022-08-04T13:54:39;37.10;99.90
10873;DHT22;34586;53.616;10.032;2022-08-04T13:57:12;37.50;99.90
10873;DHT22;34586;53.616;10.032;2022-08-04T13:59:40;37.40;99.90
10873;DHT22;34586;53.616;10.032;2022-08-04T14:02:15;37.40;99.90
10873;DHT22;34586;53.616;10.032;2022-08-04T14:04:52;37.50;99.90
10873;DHT22;34586;53.616;10.032;2022-08-04T14:07:20;37.50;99.90
10873;DHT22;34586;53.616;10.032;2022-08-04T14:09:48;38.00;99.90
10873;DHT22;34586;53.616;10.032;2022-08-04T14:12:14;38.10;99.90
10873;DHT22;34586;53.616;10.032;2022-08-04T14:14:49;38.50;99.90
10873;DHT22;34586;53.616;10.032;2022-08-04T14:17:17;38.80;99.90
10873;DHT22;34586;53.616;10.032;2022-08-04T14:25:10;39.10;99.90
10873;DHT22;34586;53.616;10.032;2022-08-04T14:27:48;39.10;99.90
10873;DHT22;34586;53.616;10.032;2022-08-04T14:30:31;39.40;99.90
10873;DHT22;34586;53.616;10.032;2022-08-04T14:35:28;39.70;99.90
10873;DHT22;34586;53.616;10.032;2022-08-04T14:38:00;39.60;99.90
10873;DHT22;34586;53.616;10.032;2022-08-04T14:40:31;39.50;99.90
10873;DHT22;34586;53.616;10.032;2022-08-04T14:42:58;38.90;99.90
10873;DHT22;34586;53.616;10.032;2022-08-04T14:45:41;38.20;99.90
10873;DHT22;34586;53.616;10.032;2022-08-04T14:48:10;37.60;99.90
10873;DHT22;34586;53.616;10.032;2022-08-04T14:50:41;36.90;99.90
10873;DHT22;34586;53.616;10.032;2022-08-04T14:53:19;36.20;99.90
10873;DHT22;34586;53.616;10.032;2022-08-04T14:55:47;35.60;99.90
10873;DHT22;34586;53.616;10.032;2022-08-04T15:00:44;34.60;99.90
10873;DHT22;34586;53.616;10.032;2022-08-04T15:03:10;34.20;99.90
10873;DHT22;34586;53.616;10.032;2022-08-04T15:05:38;33.80;1.00
10873;DHT22;34586;53.616;10.032;2022-08-04T15:08:05;33.20;1.00
10873;DHT22;34586;53.616;10.032;2022-08-04T15:10:30;32.80;1.00
10873;DHT22;34586;53.616;10.032;2022-08-04T15:12:56;32.40;99.90
10873;DHT22;34586;53.616;10.032;2022-08-04T15:15:22;32.10;85.50
10873;DHT22;34586;53.616;10.032;2022-08-04T15:17:49;31.70;1.00
10873;DHT22;34586;53.616;10.032;2022-08-04T15:20:15;31.40;99.90
10873;DHT22;34586;53.616;10.032;2022-08-04T15:22:42;31.10;1.00
10873;DHT22;34586;53.616;10.032;2022-08-04T15:25:08;30.50;1.00
10873;DHT22;34586;53.616;10.032;2022-08-04T15:27:35;30.20;99.90
10873;DHT22;34586;53.616;10.032;2022-08-04T15:30:07;29.90;99.90
10873;DHT22;34586;53.616;10.032;2022-08-04T15:32:36;29.60;1.00
10873;DHT22;34586;53.616;10.032;2022-08-04T15:35:10;29.50;99.90
10873;DHT22;34586;53.616;10.032;2022-08-04T15:37:45;29.30;1.00
10873;DHT22;34586;53.616;10.032;2022-08-04T15:40:42;29.20;99.90
10873;DHT22;34586;53.616;10.032;2022-08-04T15:46:05;28.90;1.00
10873;DHT22;34586;53.616;10.032;2022-08-04T15:48:31;28.70;1.00
10873;DHT22;34586;53.616;10.032;2022-08-04T15:58:51;28.10;1.00
10873;DHT22;34586;53.616;10.032;2022-08-04T16:01:19;28.00;1.00
10873;DHT22;34586;53.616;10.032;2022-08-04T16:03:50;27.70;87.90
10873;DHT22;34586;53.616;10.032;2022-08-04T16:14:09;26.10;54.40
10873;DHT22;34586;53.616;10.032;2022-08-04T16:22:00;25.00;21.80
10873;DHT22;34586;53.616;10.032;2022-08-04T16:24:29;25.00;1.00
10873;DHT22;34586;53.616;10.032;2022-08-04T16:27:00;25.10;99.90
10873;DHT22;34586;53.616;10.032;2022-08-04T16:29:31;25.20;1.00
10873;DHT22;34586;53.616;10.032;2022-08-04T16:34:45;25.50;1.00
10873;DHT22;34586;53.616;10.032;2022-08-04T16:37:14;25.70;99.90
10873;DHT22;34586;53.616;10.032;2022-08-04T16:39:40;25.60;99.90
10873;DHT22;34586;53.616;10.032;2022-08-04T16:42:29;25.50;99.90
10873;DHT22;34586;53.616;10.032;2022-08-04T16:50:15;25.40;1.00
10873;DHT22;34586;53.616;10.032;2022-08-04T16:52:50;25.40;1.00
10873;DHT22;34586;53.616;10.032;2022-08-04T16:55:23;25.40;99.90
10873;DHT22;34586;53.616;10.032;2022-08-04T16:57:55;25.30;1.00
10873;DHT22;34586;53.616;10.032;2022-08-04T17:00:30;25.10;1.00
10873;DHT22;34586;53.616;10.032;2022-08-04T17:02:56;25.10;99.90
10873;DHT22;34586;53.616;10.032;2022-08-04T17:05:25;25.10;1.00
10873;DHT22;34586;53.616;10.032;2022-08-04T17:07:58;25.10;99.90
10873;DHT22;34586;53.616;10.032;2022-08-04T17:10:50;25.10;1.00
10873;DHT22;34586;53.616;10.032;2022-08-04T17:13:30;25.20;1.00
10873;DHT22;34586;53.616;10.032;2022-08-04T17:15:58;25.30;99.90
10873;DHT22;34586;53.616;10.032;2022-08-04T17:18:27;25.10;1.00
10873;DHT22;34586;53.616;10.032;2022-08-04T17:20:56;25.00;99.90
10873;DHT22;34586;53.616;10.032;2022-08-04T17:23:22;24.90;1.00
10873;DHT22;34586;53.616;10.032;2022-08-04T17:25:57;24.80;92.00
10873;DHT22;34586;53.616;10.032;2022-08-04T17:28:23;24.70;26.80
10873;DHT22;34586;53.616;10.032;2022-08-04T17:30:49;24.60;1.00
10873;DHT22;34586;53.616;10.032;2022-08-04T17:33:16;24.60;1.00
10873;DHT22;34586;53.616;10.032;2022-08-04T17:35:43;24.60;99.90
10873;DHT22;34586;53.616;10.032;2022-08-04T17:38:09;24.50;1.00
10873;DHT22;34586;53.616;10.032;2022-08-04T17:40:55;24.60;1.00
10873;DHT22;34586;53.616;10.032;2022-08-04T17:43:46;24.60;1.00
10873;DHT22;34586;53.616;10.032;2022-08-04T17:48:42;24.50;99.90
10873;DHT22;34586;53.616;10.032;2022-08-04T17:51:13;24.50;99.90
10873;DHT22;34586;53.616;10.032;2022-08-04T17:53:39;24.50;1.00
10873;DHT22;34586;53.616;10.032;2022-08-04T17:56:04;24.50;1.00
10873;DHT22;34586;53.616;10.032;2022-08-04T17:58:30;24.50;99.90
10873;DHT22;34586;53.616;10.032;2022-08-04T18:01:02;24.60;99.90
10873;DHT22;34586;53.616;10.032;2022-08-04T18:03:28;24.50;1.00
10873;DHT22;34586;53.616;10.032;2022-08-04T18:05:54;24.40;1.00
10873;DHT22;34586;53.616;10.032;2022-08-04T18:08:24;24.50;1.00
10873;DHT22;34586;53.616;10.032;2022-08-04T18:10:53;24.40;1.00
10873;DHT22;34586;53.616;10.032;2022-08-04T18:13:19;24.40;99.90
10873;DHT22;34586;53.616;10.032;2022-08-04T18:15:45;24.30;99.90
10873;DHT22;34586;53.616;10.032;2022-08-04T18:18:19;24.30;1.00
10873;DHT22;34586;53.616;10.032;2022-08-04T18:20:45;24.30;1.00
10873;DHT22;34586;53.616;10.032;2022-08-04T18:23:11;24.20;1.00
10873;DHT22;34586;53.616;10.032;2022-08-04T18:25:37;24.20;1.00
10873;DHT22;34586;53.616;10.032;2022-08-04T18:28:05;24.20;1.00
10873;DHT22;34586;53.616;10.032;2022-08-04T18:30:33;24.10;1.00
10873;DHT22;34586;53.616;10.032;2022-08-04T18:32:59;24.10;1.00
10873;DHT22;34586;53.616;10.032;2022-08-04T18:35:26;24.00;1.00
10873;DHT22;34586;53.616;10.032;2022-08-04T18:37:53;24.00;90.30
10873;DHT22;34586;53.616;10.032;2022-08-04T18:40:19;24.00;99.90
10873;DHT22;34586;53.616;10.032;2022-08-04T18:42:45;23.90;99.90
10873;DHT22;34586;53.616;10.032;2022-08-04T18:45:11;23.90;99.90
10873;DHT22;34586;53.616;10.032;2022-08-04T18:47:38;23.90;99.90
10873;DHT22;34586;53.616;10.032;2022-08-04T18:50:04;23.80;99.90
10873;DHT22;34586;53.616;10.032;2022-08-04T18:52:31;23.80;99.90
10873;DHT22;34586;53.616;10.032;2022-08-04T18:54:56;23.70;99.90
10873;DHT22;34586;53.616;10.032;2022-08-04T18:57:24;23.70;99.90
10873;DHT22;34586;53.616;10.032;2022-08-04T18:59:49;23.60;1.00
10873;DHT22;34586;53.616;10.032;2022-08-04T19:02:16;23.50;1.00
10873;DHT22;34586;53.616;10.032;2022-08-04T19:04:42;23.50;1.00
10873;DHT22;34586;53.616;10.032;2022-08-04T19:07:09;23.40;1.00
10873;DHT22;34586;53.616;10.032;2022-08-04T19:09:38;23.20;1.00
10873;DHT22;34586;53.616;10.032;2022-08-04T19:12:04;23.30;1.00
10873;DHT22;34586;53.616;10.032;2022-08-04T19:14:30;23.20;1.00
10873;DHT22;34586;53.616;10.032;2022-08-04T19:16:55;23.20;1.00
10873;DHT22;34586;53.616;10.032;2022-08-04T19:19:21;23.10;1.00
10873;DHT22;34586;53.616;10.032;2022-08-04T19:21:46;23.00;1.00
10873;DHT22;34586;53.616;10.032;2022-08-04T19:24:12;23.00;1.00
10873;DHT22;34586;53.616;10.032;2022-08-04T19:26:38;22.90;1.00
10873;DHT22;34586;53.616;10.032;2022-08-04T19:29:04;22.90;1.00
10873;DHT22;34586;53.616;10.032;2022-08-04T19:31:30;22.80;1.00
10873;DHT22;34586;53.616;10.032;2022-08-04T19:33:55;22.80;1.00
10873;DHT22;34586;53.616;10.032;2022-08-04T19:36:22;22.80;1.00
10873;DHT22;34586;53.616;10.032;2022-08-04T19:38:48;22.70;1.00